Time;durP1;ratioP1;P1;durP2;ratioP2;P2;SDS_P1;SDS_P2;PMS_P1;PMS_P2;Temp;Humidity;BMP_temperature;BMP_pressure;BME280_temperature;BME280_humidity;BME280_pressure;Samples;Min_cycle;Max_cycle;Signal;HPM_P1;HPM_P2
2024/02/11 00:00:27;;;;;;;;;7.00;5.67;;;;;15.25;100.00;98227.78;2087585;28;46301;-53
2024/02/11 00:01:28;;;;;;;;;5.75;4.75;;;;;15.25;100.00;98225.13;2081386;28;47214;-52
2024/02/11 00:02:28;;;;;;;;;6.00;5.67;;;;;15.24;100.00;98224.25;2097686;28;46387;-50
2024/02/11 00:03:29;;;;;;;;;7.00;6.00;;;;;15.26;100.00;98229.50;2115408;27;47025;-52
2024/02/11 00:04:31;;;;;;;;;10.67;6.67;;;;;15.25;100.00;98233.16;2115779;27;46604;-50
2024/02/11 00:05:31;;;;;;;;;4.25;4.25;;;;;15.26;100.00;98226.81;2116264;27;46980;-52
2024/02/11 00:06:31;;;;;;;;;6.00;5.67;;;;;15.24;100.00;98226.06;2116787;27;46242;-53
2024/02/11 00:07:32;;;;;;;;;7.33;4.00;;;;;15.36;100.00;98229.56;2117265;27;46652;-53
2024/02/11 00:08:33;;;;;;;;;6.33;6.33;;;;;15.38;100.00;98227.66;2115176;27;46650;-50
2024/02/11 00:09:33;;;;;;;;;4.67;4.67;;;;;15.40;100.00;98223.88;2117392;27;46646;-52
2024/02/11 00:10:33;;;;;;;;;12.33;6.00;;;;;15.40;100.00;98226.56;2117452;27;46322;-52
2024/02/11 00:11:34;;;;;;;;;5.33;5.33;;;;;15.39;100.00;98229.34;2117795;27;45773;-52
2024/02/11 00:12:41;;;;;;;;;7.67;6.00;;;;;15.43;100.00;98225.44;2100567;28;46011;-50
2024/02/11 00:13:42;;;;;;;;;5.00;3.75;;;;;15.43;100.00;98222.78;2104493;27;46467;-52
2024/02/11 00:14:44;;;;;;;;;5.25;5.00;;;;;15.45;100.00;98223.50;2116651;27;46988;-48
2024/02/11 00:15:45;;;;;;;;;6.25;5.00;;;;;15.44;100.00;98235.16;2114983;27;46855;-49
2024/02/11 00:16:46;;;;;;;;;4.33;4.33;;;;;15.42;100.00;98227.28;2115548;27;46201;-50
2024/02/11 00:17:48;;;;;;;;;6.33;5.67;;;;;15.43;100.00;98230.78;2118184;27;46615;-51
2024/02/11 00:18:48;;;;;;;;;6.00;5.25;;;;;15.44;100.00;98232.50;2116409;27;45616;-54
2024/02/11 00:19:49;;;;;;;;;5.00;4.00;;;;;15.42;100.00;98229.94;2116292;27;46526;-48
2024/02/11 00:20:49;;;;;;;;;6.67;5.00;;;;;15.40;100.00;98237.25;2117297;27;45964;-51
2024/02/11 00:21:49;;;;;;;;;7.33;5.00;;;;;15.42;100.00;98239.78;2114790;27;46648;-50
2024/02/11 00:22:50;;;;;;;;;8.00;6.33;;;;;15.43;100.00;98241.50;2115600;27;46447;-51
2024/02/11 00:23:50;;;;;;;;;3.33;2.67;;;;;15.43;100.00;98228.13;2117184;27;46240;-51
2024/02/11 00:24:51;;;;;;;;;6.67;5.00;;;;;15.43;100.00;98236.13;2108336;27;45743;-52
2024/02/11 00:25:54;;;;;;;;;5.00;4.25;;;;;15.42;100.00;98232.63;2099803;27;46722;-52
2024/02/11 00:26:54;;;;;;;;;6.50;6.50;;;;;15.44;100.00;98235.16;2107524;27;46389;-50
2024/02/11 00:27:59;;;;;;;;;5.67;5.00;;;;;15.43;100.00;98231.66;2116562;27;46109;-53
2024/02/11 00:28:59;;;;;;;;;6.75;5.00;;;;;15.42;100.00;98237.97;2116943;27;46504;-51
2024/02/11 00:30:01;;;;;;;;;6.00;5.00;;;;;15.42;100.00;98237.97;2107714;27;47030;-51
2024/02/11 00:31:02;;;;;;;;;7.25;5.25;;;;;15.40;100.00;98242.59;2107718;27;46441;-48
2024/02/11 00:32:03;;;;;;;;;6.00;5.25;;;;;15.41;100.00;98243.44;2116972;27;46840;-51
2024/02/11 00:33:05;;;;;;;;;6.50;5.50;;;;;15.40;100.00;98245.25;2113948;27;46458;-53
2024/02/11 00:34:05;;;;;;;;;5.25;5.00;;;;;15.40;100.00;98237.25;2116837;27;46596;-49
2024/02/11 00:35:06;;;;;;;;;5.00;4.00;;;;;15.41;100.00;98238.94;2117291;27;46496;-50
2024/02/11 00:36:07;;;;;;;;;8.00;5.00;;;;;15.42;100.00;98242.47;2116821;27;46396;-53
2024/02/11 00:37:10;;;;;;;;;5.25;5.25;;;;;15.41;100.00;98244.28;2117495;27;46446;-53
2024/02/11 00:38:13;;;;;;;;;7.00;6.00;;;;;15.44;100.00;98240.50;2116241;27;46521;-50
2024/02/11 00:39:13;;;;;;;;;5.00;5.00;;;;;15.44;100.00;98233.34;2116438;27;46595;-55
2024/02/11 00:40:14;;;;;;;;;8.00;6.00;;;;;15.46;100.00;98243.91;2117938;27;45429;-53
2024/02/11 00:41:15;;;;;;;;;6.25;6.25;;;;;15.44;100.00;98238.69;2117678;27;45571;-54
2024/02/11 00:42:19;;;;;;;;;4.00;4.00;;;;;15.42;100.00;98232.63;2117053;27;46501;-52
2024/02/11 00:43:20;;;;;;;;;5.75;4.75;;;;;15.46;100.00;98236.72;2115972;27;46639;-53
2024/02/11 00:44:20;;;;;;;;;6.33;5.67;;;;;15.38;100.00;98239.19;2116534;27;46244;-51
2024/02/11 00:45:20;;;;;;;;;6.67;6.67;;;;;15.45;100.00;98236.84;2115079;27;46843;-51
2024/02/11 00:46:21;;;;;;;;;7.67;5.67;;;;;15.44;100.00;98230.66;2116395;27;46679;-52
2024/02/11 00:47:22;;;;;;;;;5.33;4.33;;;;;15.46;100.00;98238.56;2116224;27;46699;-50
2024/02/11 00:48:23;;;;;;;;;6.00;6.00;;;;;15.44;100.00;98233.34;2116860;27;47051;-49
2024/02/11 00:49:24;;;;;;;;;6.75;6.00;;;;;15.42;100.00;98229.09;2115973;27;46357;-49
2024/02/11 00:50:24;;;;;;;;;4.67;4.33;;;;;15.42;100.00;98235.28;2115543;27;45520;-49
2024/02/11 00:51:27;;;;;;;;;5.33;4.67;;;;;15.40;100.00;98226.56;2116823;27;45750;-50
2024/02/11 00:52:27;;;;;;;;;7.00;5.75;;;;;15.32;100.00;98231.66;2116136;27;46597;-49
2024/02/11 00:53:27;;;;;;;;;6.00;6.00;;;;;15.34;100.00;98240.41;2118038;27;45518;-51
2024/02/11 00:54:28;;;;;;;;;4.67;4.67;;;;;15.31;100.00;98243.31;2117435;27;46645;-50
2024/02/11 00:55:28;;;;;;;;;9.00;8.00;;;;;15.36;100.00;98235.78;2117238;27;46254;-52
2024/02/11 00:56:29;;;;;;;;;6.67;6.00;;;;;15.37;100.00;98237.47;2116959;27;45502;-52
2024/02/11 00:57:30;;;;;;;;;8.00;6.00;;;;;15.37;100.00;98236.63;2115471;27;46631;-47
2024/02/11 00:58:33;;;;;;;;;5.00;5.00;;;;;15.37;100.00;98237.47;2116310;27;46385;-47
2024/02/11 00:59:34;;;;;;;;;5.00;5.00;;;;;15.39;100.00;98240.03;2108009;27;46918;-48
2024/02/11 01:00:34;;;;;;;;;5.75;5.75;;;;;15.39;100.00;98232.88;2108502;27;46994;-49
2024/02/11 01:01:34;;;;;;;;;6.67;3.00;;;;;15.40;100.00;98237.25;2117088;27;45910;-51
2024/02/11 01:02:36;;;;;;;;;5.00;5.00;;;;;15.37;100.00;98240.13;2116486;27;46886;-49
2024/02/11 01:03:37;;;;;;;;;5.50;5.50;;;;;15.39;100.00;98238.22;2115307;27;46428;-50
2024/02/11 01:04:38;;;;;;;;;7.00;5.67;;;;;15.43;100.00;98228.13;2117530;27;46892;-49
2024/02/11 01:05:38;;;;;;;;;6.00;5.00;;;;;15.37;100.00;98237.47;2116647;27;46827;-47
2024/02/11 01:06:38;;;;;;;;;6.67;5.00;;;;;15.40;100.00;98236.41;2114604;27;46330;-49
2024/02/11 01:07:40;;;;;;;;;6.33;6.33;;;;;15.42;100.00;98239.78;2116596;27;46659;-47
2024/02/11 01:08:40;;;;;;;;;7.00;6.00;;;;;15.40;100.00;98233.72;2116387;27;46971;-49
2024/02/11 01:09:40;;;;;;;;;6.00;5.00;;;;;15.38;100.00;98241.88;2115132;27;46586;-49
2024/02/11 01:10:41;;;;;;;;;6.00;5.00;;;;;15.39;100.00;98240.03;2116313;27;45917;-47
2024/02/11 01:11:41;;;;;;;;;8.67;7.00;;;;;15.38;100.00;98244.53;2117360;27;45954;-49
2024/02/11 01:12:44;;;;;;;;;8.00;6.00;;;;;15.40;100.00;98247.94;2117325;27;46624;-53
2024/02/11 01:13:45;;;;;;;;;6.50;5.50;;;;;15.37;100.00;98236.63;2116734;27;46084;-47
2024/02/11 01:14:46;;;;;;;;;8.75;7.00;;;;;15.39;100.00;98253.41;2116659;27;47103;-48
2024/02/11 01:15:46;;;;;;;;;4.33;4.33;;;;;15.38;100.00;98249.88;2116341;27;46483;-48
2024/02/11 01:16:46;;;;;;;;;4.00;4.00;;;;;15.39;100.00;98235.56;2116639;27;46603;-49
2024/02/11 01:17:48;;;;;;;;;8.33;5.33;;;;;15.40;100.00;98247.94;2117544;27;46706;-51
2024/02/11 01:18:48;;;;;;;;;4.25;3.00;;;;;15.40;100.00;98241.75;2115978;27;46564;-53
2024/02/11 01:19:52;;;;;;;;;4.67;4.00;;;;;15.41;100.00;98244.28;2116845;27;46269;-53
2024/02/11 01:20:53;;;;;;;;;6.75;5.25;;;;;15.39;100.00;98238.22;2116672;27;46642;-50
2024/02/11 01:21:54;;;;;;;;;5.75;4.25;;;;;15.40;100.00;98239.91;2096081;28;46449;-56
2024/02/11 01:22:54;;;;;;;;;4.00;4.00;;;;;15.40;100.00;98236.41;2094968;28;46344;-48
2024/02/11 01:23:54;;;;;;;;;4.00;4.00;;;;;15.38;100.00;98239.19;2117104;27;47943;-50
2024/02/11 01:24:55;;;;;;;;;5.33;5.00;;;;;15.39;100.00;98240.91;2116738;27;46273;-53
2024/02/11 01:25:55;;;;;;;;;7.00;6.00;;;;;15.40;100.00;98239.06;2117254;27;46808;-48
2024/02/11 01:26:56;;;;;;;;;6.00;3.33;;;;;15.39;100.00;98240.91;2116266;27;46841;-50
2024/02/11 01:27:57;;;;;;;;;7.75;7.50;;;;;15.40;100.00;98252.44;2116028;27;46523;-52
2024/02/11 01:28:57;;;;;;;;;4.33;4.33;;;;;15.39;100.00;98237.38;2116899;27;46705;-51
2024/02/11 01:29:58;;;;;;;;;5.00;4.67;;;;;15.39;100.00;98240.03;2117152;27;46432;-50
2024/02/11 01:30:59;;;;;;;;;4.00;4.00;;;;;15.39;100.00;98238.22;2117210;27;45497;-52
2024/02/11 01:32:00;;;;;;;;;6.50;5.00;;;;;15.38;100.00;98241.88;2116388;27;47142;-52
2024/02/11 01:33:00;;;;;;;;;5.00;4.67;;;;;15.37;100.00;98240.13;2116348;27;45262;-52
2024/02/11 01:34:00;;;;;;;;;8.00;7.00;;;;;15.33;100.00;98241.38;2116109;27;46593;-52
2024/02/11 01:35:01;;;;;;;;;6.00;4.00;;;;;15.31;100.00;98237.97;2116037;27;47284;-53
2024/02/11 01:36:02;;;;;;;;;6.33;4.33;;;;;15.31;100.00;98233.47;2116820;27;47096;-53
2024/02/11 01:37:04;;;;;;;;;6.00;4.75;;;;;15.32;100.00;98239.69;2117359;27;46565;-50
2024/02/11 01:38:06;;;;;;;;;5.25;5.25;;;;;15.31;100.00;98238.81;2113735;27;46966;-49
2024/02/11 01:39:07;;;;;;;;;5.00;5.00;;;;;15.30;100.00;98247.81;2115704;27;46044;-49
2024/02/11 01:40:17;;;;;;;;;4.00;3.50;;;;;15.32;100.00;98250.38;2115801;27;46966;-50
2024/02/11 01:41:17;;;;;;;;;6.75;6.00;;;;;15.33;100.00;98241.38;2115841;27;46930;-50
2024/02/11 01:42:18;;;;;;;;;6.00;5.67;;;;;15.31;100.00;98244.16;2116155;27;46258;-48
2024/02/11 01:43:18;;;;;;;;;5.00;5.00;;;;;15.29;100.00;98237.25;2115684;27;46145;-50
2024/02/11 01:44:19;;;;;;;;;7.00;6.00;;;;;15.25;100.00;98241.16;2107603;27;46455;-51
2024/02/11 01:45:19;;;;;;;;;6.33;5.33;;;;;15.25;100.00;98244.69;2107342;27;46634;-49
2024/02/11 01:46:20;;;;;;;;;3.67;3.67;;;;;15.27;100.00;98236.53;2115404;27;45627;-50
2024/02/11 01:47:20;;;;;;;;;7.75;6.00;;;;;15.28;100.00;98241.75;2115622;27;46555;-53
2024/02/11 01:48:21;;;;;;;;;5.67;4.00;;;;;15.35;100.00;98242.09;2115877;27;46583;-50
2024/02/11 01:49:22;;;;;;;;;3.00;2.00;;;;;15.37;100.00;98242.81;2116885;27;47187;-53
2024/02/11 01:50:24;;;;;;;;;6.00;6.00;;;;;15.39;100.00;98237.38;2115702;27;47164;-49
2024/02/11 01:51:25;;;;;;;;;5.00;4.00;;;;;15.41;100.00;98238.94;2116808;27;46264;-49
2024/02/11 01:52:28;;;;;;;;;4.00;4.00;;;;;15.43;100.00;98242.34;2115856;27;46370;-49
2024/02/11 01:53:28;;;;;;;;;8.25;3.75;;;;;15.43;100.00;98239.66;2113083;27;46653;-52
2024/02/11 01:54:30;;;;;;;;;4.00;4.00;;;;;15.45;100.00;98231.50;2115463;27;46465;-51
2024/02/11 01:55:34;;;;;;;;;6.00;4.75;;;;;15.45;100.00;98239.53;2114666;27;46456;-51
2024/02/11 01:56:34;;;;;;;;;5.75;5.00;;;;;15.43;100.00;98239.66;2116742;27;46738;-53
2024/02/11 01:57:35;;;;;;;;;6.67;4.00;;;;;15.42;100.00;98239.78;2115419;27;46665;-52
2024/02/11 01:58:36;;;;;;;;;6.00;4.00;;;;;15.41;100.00;98246.97;2116700;27;46752;-51
2024/02/11 01:59:38;;;;;;;;;4.67;4.33;;;;;15.39;100.00;98246.25;2102172;28;46477;-53
2024/02/11 02:00:40;;;;;;;;;6.25;5.25;;;;;15.41;100.00;98238.09;2102791;27;46607;-52
2024/02/11 02:01:40;;;;;;;;;6.75;6.25;;;;;15.41;100.00;98246.13;2116260;27;46785;-53
2024/02/11 02:02:42;;;;;;;;;6.00;6.00;;;;;15.41;100.00;98244.28;2115173;27;46612;-48
2024/02/11 02:03:45;;;;;;;;;6.00;5.25;;;;;15.29;100.00;98246.13;2116135;27;45830;-51
2024/02/11 02:04:47;;;;;;;;;5.75;4.25;;;;;15.28;100.00;98246.25;2116183;27;46828;-50
2024/02/11 02:05:48;;;;;;;;;3.50;3.50;;;;;15.30;100.00;98254.97;2116248;27;46516;-51
2024/02/11 02:06:50;;;;;;;;;6.75;5.50;;;;;15.30;100.00;98244.28;2115814;27;46721;-50
2024/02/11 02:07:54;;;;;;;;;4.75;3.50;;;;;15.30;100.00;98244.28;2114786;27;47062;-51
2024/02/11 02:08:55;;;;;;;;;5.50;4.00;;;;;15.27;100.00;98250.75;2113106;27;46681;-50
2024/02/11 02:10:00;;;;;;;;;6.25;6.25;;;;;15.25;100.00;98251.84;2115143;27;46934;-50
2024/02/11 02:11:01;;;;;;;;;4.00;3.75;;;;;15.23;100.00;98243.06;2116454;27;46959;-52
2024/02/11 02:12:04;;;;;;;;;5.67;4.67;;;;;15.21;100.00;98247.69;2106785;27;46092;-49
2024/02/11 02:13:05;;;;;;;;;4.25;4.00;;;;;15.20;100.00;98254.00;2108000;27;46421;-48
2024/02/11 02:14:06;;;;;;;;;5.00;4.00;;;;;15.27;100.00;98255.25;2116206;27;47029;-51
2024/02/11 02:15:09;;;;;;;;;5.33;4.00;;;;;15.32;100.00;98247.69;2115412;27;46425;-47
2024/02/11 02:16:10;;;;;;;;;5.50;4.25;;;;;15.28;100.00;98249.78;2117076;27;46349;-51
2024/02/11 02:17:10;;;;;;;;;4.67;4.67;;;;;15.28;100.00;98243.56;2115335;27;46277;-51
2024/02/11 02:18:10;;;;;;;;;5.33;5.00;;;;;15.31;100.00;98248.66;2115959;27;46294;-51
2024/02/11 02:19:12;;;;;;;;;4.00;4.00;;;;;15.32;100.00;98245.88;2113713;27;46679;-50
2024/02/11 02:20:14;;;;;;;;;5.25;3.25;;;;;15.32;100.00;98242.34;2113828;27;47085;-51
2024/02/11 02:21:14;;;;;;;;;6.75;5.75;;;;;15.36;100.00;98248.28;2113906;27;46195;-49
2024/02/11 02:22:15;;;;;;;;;2.33;2.33;;;;;15.36;100.00;98246.47;2116220;27;46716;-50
2024/02/11 02:23:16;;;;;;;;;4.00;4.00;;;;;15.31;100.00;98249.50;2115857;27;45329;-53
2024/02/11 02:24:16;;;;;;;;;6.00;5.00;;;;;15.31;100.00;98246.84;2115644;27;46336;-50
2024/02/11 02:25:16;;;;;;;;;4.00;4.00;;;;;15.31;100.00;98241.50;2115524;27;46542;-50
2024/02/11 02:26:17;;;;;;;;;4.33;3.00;;;;;15.33;100.00;98246.72;2113565;27;45978;-51
2024/02/11 02:27:17;;;;;;;;;2.67;2.00;;;;;15.27;100.00;98248.06;2115943;27;46223;-51
2024/02/11 02:28:20;;;;;;;;;2.67;2.33;;;;;15.27;100.00;98250.75;2114506;27;46511;-49
2024/02/11 02:29:20;;;;;;;;;3.00;3.00;;;;;15.31;100.00;98251.34;2088203;28;47640;-50
2024/02/11 02:30:22;;;;;;;;;2.67;2.67;;;;;15.29;100.00;98255.97;2089958;27;46664;-51
2024/02/11 02:31:22;;;;;;;;;3.75;3.75;;;;;15.29;100.00;98254.13;2114940;27;46817;-50
2024/02/11 02:32:23;;;;;;;;;3.00;3.00;;;;;15.28;100.00;98248.91;2116374;27;46834;-50
2024/02/11 02:33:23;;;;;;;;;2.67;2.67;;;;;15.26;100.00;98253.53;2116909;27;46271;-50
2024/02/11 02:34:23;;;;;;;;;5.00;3.00;;;;;15.24;100.00;98250.97;2116298;27;46549;-52
2024/02/11 02:35:23;;;;;;;;;3.67;3.67;;;;;15.27;100.00;98252.56;2117100;27;46608;-49
2024/02/11 02:36:24;;;;;;;;;4.00;4.00;;;;;15.21;100.00;98250.38;2116273;27;46647;-48
2024/02/11 02:37:25;;;;;;;;;4.67;3.00;;;;;15.20;100.00;98257.53;2117198;27;45695;-49
2024/02/11 02:38:25;;;;;;;;;2.67;2.67;;;;;15.21;100.00;98247.69;2116481;27;46857;-48
2024/02/11 02:39:25;;;;;;;;;4.00;3.33;;;;;15.19;100.00;98242.47;2116686;27;45494;-53
2024/02/11 02:40:26;;;;;;;;;4.33;3.67;;;;;15.26;100.00;98240.19;2115803;27;46921;-50
2024/02/11 02:41:27;;;;;;;;;4.00;3.50;;;;;15.25;100.00;98247.34;2112406;27;46546;-53
2024/02/11 02:42:27;;;;;;;;;3.33;2.00;;;;;15.25;100.00;98241.16;2097844;28;46825;-52
2024/02/11 02:43:28;;;;;;;;;7.00;5.00;;;;;15.28;100.00;98248.91;2097292;28;46509;-47
2024/02/11 02:44:29;;;;;;;;;4.33;3.00;;;;;15.31;100.00;98244.16;2113406;27;46266;-50
2024/02/11 02:45:29;;;;;;;;;1.00;1.00;;;;;15.23;100.00;98241.25;2115421;27;46472;-50
2024/02/11 02:46:30;;;;;;;;;4.00;4.00;;;;;15.29;100.00;98253.28;2117249;27;46781;-50
2024/02/11 02:47:31;;;;;;;;;3.50;2.75;;;;;15.29;100.00;98246.13;2115424;27;48037;-52
2024/02/11 02:48:31;;;;;;;;;4.00;4.00;;;;;15.27;100.00;98244.56;2116350;27;46720;-53
2024/02/11 02:49:32;;;;;;;;;4.00;3.00;;;;;15.26;100.00;98242.84;2115565;27;46760;-49
2024/02/11 02:50:34;;;;;;;;;6.00;3.00;;;;;15.25;100.00;98241.16;2114705;27;46720;-48
2024/02/11 02:51:35;;;;;;;;;3.00;3.00;;;;;15.25;100.00;98241.16;2116337;27;46578;-50
2024/02/11 02:52:36;;;;;;;;;2.67;2.67;;;;;15.24;100.00;98245.63;2115846;27;46529;-51
2024/02/11 02:53:36;;;;;;;;;4.00;4.00;;;;;15.26;100.00;98243.69;2114485;27;46652;-52
2024/02/11 02:54:36;;;;;;;;;4.00;3.00;;;;;15.24;100.00;98242.94;2115857;27;46619;-50
2024/02/11 02:55:38;;;;;;;;;5.00;3.00;;;;;15.27;100.00;98245.41;2098893;28;46296;-51
2024/02/11 02:56:39;;;;;;;;;2.25;1.50;;;;;15.28;100.00;98240.91;2096923;28;46392;-52
2024/02/11 02:57:39;;;;;;;;;2.00;2.00;;;;;15.30;100.00;98241.63;2104748;27;46256;-49
2024/02/11 02:58:41;;;;;;;;;3.33;3.00;;;;;15.29;100.00;98240.78;2105806;27;46455;-50
2024/02/11 02:59:41;;;;;;;;;3.75;3.50;;;;;15.26;100.00;98246.38;2116271;27;45293;-52
2024/02/11 03:00:41;;;;;;;;;4.33;3.00;;;;;15.24;100.00;98236.75;2116210;27;45823;-51
2024/02/11 03:01:43;;;;;;;;;4.00;3.00;;;;;15.26;100.00;98246.38;2115531;27;46420;-49
2024/02/11 03:02:43;;;;;;;;;5.75;4.00;;;;;15.30;100.00;98244.28;2115981;27;46285;-51
2024/02/11 03:03:46;;;;;;;;;5.67;3.67;;;;;15.26;100.00;98246.38;2115047;27;46614;-48
2024/02/11 03:04:47;;;;;;;;;3.25;3.25;;;;;15.27;100.00;98247.22;2116067;27;46616;-50
2024/02/11 03:05:47;;;;;;;;;5.00;4.00;;;;;15.20;100.00;98246.00;2088332;28;46474;-49
2024/02/11 03:06:47;;;;;;;;;2.67;2.67;;;;;15.19;100.00;98244.31;2089950;28;45885;-52
2024/02/11 03:07:48;;;;;;;;;3.67;3.67;;;;;15.22;100.00;98244.06;2115562;27;46298;-50
2024/02/11 03:08:50;;;;;;;;;2.33;2.33;;;;;15.21;100.00;98247.69;2114970;27;46697;-49
2024/02/11 03:09:50;;;;;;;;;3.50;3.00;;;;;15.19;100.00;98253.16;2114755;27;46929;-52
2024/02/11 03:10:51;;;;;;;;;6.00;3.00;;;;;15.22;100.00;98250.25;2117213;27;46680;-52
2024/02/11 03:11:51;;;;;;;;;3.33;2.00;;;;;15.19;100.00;98244.31;2115825;27;46392;-50
2024/02/11 03:12:52;;;;;;;;;3.67;3.00;;;;;15.28;100.00;98249.78;2115548;27;45247;-49
2024/02/11 03:13:52;;;;;;;;;3.00;3.00;;;;;15.33;100.00;98249.38;2115364;27;46372;-52
2024/02/11 03:14:52;;;;;;;;;3.33;2.33;;;;;15.33;100.00;98249.38;2113642;27;46391;-50
2024/02/11 03:15:53;;;;;;;;;4.67;4.00;;;;;15.29;100.00;98250.63;2114102;27;46143;-52
2024/02/11 03:16:53;;;;;;;;;3.33;3.33;;;;;15.30;100.00;98250.50;2087178;28;46492;-49
2024/02/11 03:17:53;;;;;;;;;4.67;4.67;;;;;15.31;100.00;98252.19;2087528;28;46237;-51
2024/02/11 03:18:53;;;;;;;;;3.00;3.00;;;;;15.28;100.00;98248.91;2115328;27;46231;-50
2024/02/11 03:19:54;;;;;;;;;4.33;3.00;;;;;15.24;100.00;98250.13;2115327;27;46852;-51
2024/02/11 03:20:54;;;;;;;;;3.33;2.67;;;;;15.37;100.00;98249.97;2117277;27;46012;-52
2024/02/11 03:21:54;;;;;;;;;5.00;4.00;;;;;15.37;100.00;98247.31;2115493;27;46804;-53
2024/02/11 03:22:55;;;;;;;;;2.33;2.33;;;;;15.36;100.00;98245.63;2115232;27;46238;-48
2024/02/11 03:23:55;;;;;;;;;5.00;2.33;;;;;15.37;100.00;98249.97;2116563;27;46435;-52
2024/02/11 03:24:56;;;;;;;;;3.00;2.00;;;;;15.37;100.00;98249.97;2116018;27;46229;-52
2024/02/11 03:25:56;;;;;;;;;1.00;1.00;;;;;15.36;100.00;98246.47;2093397;28;46735;-50
2024/02/11 03:26:56;;;;;;;;;3.00;3.00;;;;;15.35;100.00;98249.25;2092858;28;46434;-52
2024/02/11 03:27:57;;;;;;;;;4.00;2.67;;;;;15.35;100.00;98260.81;2116113;27;46864;-52
2024/02/11 03:28:57;;;;;;;;;3.33;3.33;;;;;15.35;100.00;98252.78;2114385;27;47131;-50
2024/02/11 03:29:57;;;;;;;;;4.67;3.00;;;;;15.23;100.00;98251.09;2114021;27;46806;-52
2024/02/11 03:30:59;;;;;;;;;3.00;2.00;;;;;15.26;100.00;98258.88;2107096;27;46299;-54
2024/02/11 03:31:59;;;;;;;;;4.75;3.75;;;;;15.26;100.00;98250.88;2107315;27;47055;-51
2024/02/11 03:33:00;;;;;;;;;5.33;4.00;;;;;15.26;100.00;98254.38;2114496;27;45213;-54
2024/02/11 03:34:00;;;;;;;;;4.33;2.67;;;;;15.36;100.00;98254.47;2113873;27;46764;-54
2024/02/11 03:35:01;;;;;;;;;2.00;2.00;;;;;15.38;100.00;98257.06;2114857;27;48218;-53
2024/02/11 03:36:03;;;;;;;;;2.33;2.33;;;;;15.40;100.00;98253.28;2115561;27;46062;-52
2024/02/11 03:37:04;;;;;;;;;2.25;2.25;;;;;15.37;100.00;98263.34;2115385;27;46307;-51
2024/02/11 03:38:04;;;;;;;;;4.00;3.00;;;;;15.35;100.00;98260.81;2116622;27;46830;-54
2024/02/11 03:39:10;;;;;;;;;4.67;3.00;;;;;15.37;100.00;98261.53;2116713;27;46482;-51
2024/02/11 03:40:12;;;;;;;;;3.00;3.00;;;;;15.39;100.00;98254.25;2118224;27;46863;-52
2024/02/11 03:41:13;;;;;;;;;4.25;2.75;;;;;15.39;100.00;98262.28;2117813;27;46741;-51
2024/02/11 03:42:13;;;;;;;;;2.33;2.00;;;;;15.39;100.00;98258.75;2117280;27;46686;-52
2024/02/11 03:43:14;;;;;;;;;5.33;4.00;;;;;15.39;100.00;98261.44;2117874;27;46563;-52
2024/02/11 03:44:14;;;;;;;;;2.67;2.00;;;;;15.39;100.00;98261.44;2118630;27;46343;-49
2024/02/11 03:45:17;;;;;;;;;4.67;1.67;;;;;15.38;100.00;98262.41;2118931;27;46645;-50
2024/02/11 03:46:22;;;;;;;;;0.50;0.00;;;;;15.40;100.00;98263.13;2118582;27;46284;-52
2024/02/11 03:47:23;;;;;;;;;2.00;2.00;;;;;15.39;100.00;98264.94;2118984;27;46892;-51
2024/02/11 03:48:24;;;;;;;;;4.50;3.00;;;;;15.39;100.00;98266.78;2119606;27;46477;-49
2024/02/11 03:49:25;;;;;;;;;2.75;2.00;;;;;15.40;100.00;98265.78;2115376;27;46568;-48
2024/02/11 03:50:26;;;;;;;;;2.00;2.00;;;;;15.39;100.00;98256.94;2118016;27;46138;-54
2024/02/11 03:51:26;;;;;;;;;2.33;2.00;;;;;15.41;100.00;98267.50;2091103;28;46865;-51
2024/02/11 03:52:26;;;;;;;;;5.00;2.00;;;;;15.41;100.00;98262.16;2092715;28;46637;-50
2024/02/11 03:53:27;;;;;;;;;6.00;2.00;;;;;15.39;100.00;98262.28;2118593;27;47039;-53
2024/02/11 03:54:28;;;;;;;;;2.00;2.00;;;;;15.40;100.00;98263.97;2117030;27;46327;-48
2024/02/11 03:55:29;;;;;;;;;3.00;3.00;;;;;15.41;100.00;98276.34;2109512;27;46368;-48
2024/02/11 03:56:29;;;;;;;;;5.00;3.50;;;;;15.41;100.00;98271.00;2109021;27;47376;-49
2024/02/11 03:57:30;;;;;;;;;3.67;3.67;;;;;15.41;100.00;98267.50;2118487;27;46168;-49
2024/02/11 03:58:33;;;;;;;;;3.00;3.00;;;;;15.42;100.00;98274.53;2119276;27;46707;-53
2024/02/11 03:59:33;;;;;;;;;3.00;2.75;;;;;15.40;100.00;98274.66;2118526;27;46588;-49
2024/02/11 04:00:34;;;;;;;;;4.00;2.67;;;;;15.40;100.00;98265.78;2117771;27;46255;-48
2024/02/11 04:01:35;;;;;;;;;3.00;2.00;;;;;15.39;100.00;98274.78;2117148;27;46311;-52
2024/02/11 04:02:35;;;;;;;;;2.75;2.75;;;;;15.38;100.00;98268.59;2117848;27;45720;-51
2024/02/11 04:03:39;;;;;;;;;3.00;3.00;;;;;15.40;100.00;98273.81;2118051;27;45810;-52
2024/02/11 04:04:39;;;;;;;;;3.50;3.00;;;;;15.40;100.00;98271.13;2115274;27;46358;-53
2024/02/11 04:05:43;;;;;;;;;4.00;2.00;;;;;15.42;100.00;98272.72;2117919;27;46627;-51
2024/02/11 04:06:44;;;;;;;;;3.75;2.00;;;;;15.42;100.00;98271.88;2117074;27;46732;-53
2024/02/11 04:07:50;;;;;;;;;3.75;3.00;;;;;15.40;100.00;98271.13;2117162;27;46423;-52
2024/02/11 04:08:50;;;;;;;;;3.25;3.00;;;;;15.37;100.00;98274.88;2118195;27;46812;-51
2024/02/11 04:09:52;;;;;;;;;2.67;1.00;;;;;15.36;100.00;98275.00;2118882;27;46347;-53
2024/02/11 04:10:53;;;;;;;;;2.00;2.00;;;;;15.37;100.00;98274.03;2117894;27;46937;-55
2024/02/11 04:12:01;;;;;;;;;3.67;2.00;;;;;15.40;100.00;98273.81;2118035;27;45907;-51
2024/02/11 04:13:01;;;;;;;;;1.00;1.00;;;;;15.38;100.00;98281.97;2118568;27;46627;-48
2024/02/11 04:14:05;;;;;;;;;6.00;2.33;;;;;15.37;100.00;98274.03;2117507;27;46610;-50
2024/02/11 04:15:09;;;;;;;;;4.00;3.00;;;;;15.39;100.00;98282.81;2104924;28;46732;-50
2024/02/11 04:16:15;;;;;;;;;3.00;2.25;;;;;15.40;100.00;98280.00;2105051;27;46671;-52
2024/02/11 04:17:16;;;;;;;;;2.00;2.00;;;;;15.39;100.00;98280.97;2116589;27;46634;-53
2024/02/11 04:18:21;;;;;;;;;2.00;2.00;;;;;15.41;100.00;98286.19;2117071;27;46299;-49
2024/02/11 04:19:22;;;;;;;;;3.25;3.00;;;;;15.40;100.00;98281.81;2117984;27;45079;-50
2024/02/11 04:20:27;;;;;;;;;4.25;3.00;;;;;15.41;100.00;98289.72;2117767;27;46899;-52
2024/02/11 04:21:34;;;;;;;;;1.75;1.75;;;;;15.41;100.00;98292.41;2118559;27;47031;-51
2024/02/11 04:22:36;;;;;;;;;3.25;1.50;;;;;15.31;100.00;98288.75;2115188;27;46352;-51
2024/02/11 04:23:38;;;;;;;;;2.00;2.00;;;;;15.29;100.00;98288.03;2118783;27;46468;-52
2024/02/11 04:24:41;;;;;;;;;2.67;2.67;;;;;15.28;100.00;98287.19;2109240;27;46642;-52
2024/02/11 04:25:43;;;;;;;;;2.50;2.50;;;;;15.27;100.00;98288.16;2108614;27;46507;-51
2024/02/11 04:26:43;;;;;;;;;2.00;2.00;;;;;15.35;100.00;98295.53;2119014;27;46441;-51
2024/02/11 04:27:44;;;;;;;;;4.00;2.33;;;;;15.25;100.00;98294.59;2119551;27;46857;-49
2024/02/11 04:28:47;;;;;;;;;2.33;2.33;;;;;15.26;100.00;98296.28;2099391;28;46748;-48
2024/02/11 04:29:47;;;;;;;;;2.25;2.00;;;;;15.20;100.00;98296.75;2101546;27;46523;-49
2024/02/11 04:30:47;;;;;;;;;3.00;2.00;;;;;15.19;100.00;98297.75;2117301;27;46333;-52
2024/02/11 04:31:48;;;;;;;;;3.00;3.00;;;;;15.20;100.00;98299.44;2109878;27;46326;-54
2024/02/11 04:32:49;;;;;;;;;3.00;3.00;;;;;15.22;100.00;98298.34;2108978;27;46923;-51
2024/02/11 04:33:51;;;;;;;;;4.25;3.00;;;;;15.25;100.00;98295.44;2118485;27;45556;-49
2024/02/11 04:34:53;;;;;;;;;4.75;3.75;;;;;15.21;100.00;98301.13;2117182;27;46437;-51
2024/02/11 04:35:53;;;;;;;;;3.25;3.00;;;;;15.19;100.00;98297.75;2118137;27;46633;-50
2024/02/11 04:36:55;;;;;;;;;4.00;2.00;;;;;15.18;100.00;98296.88;2117623;27;46339;-52
2024/02/11 04:37:55;;;;;;;;;3.25;2.75;;;;;15.08;100.00;98295.06;2118236;27;47001;-52
2024/02/11 04:38:58;;;;;;;;;2.67;1.33;;;;;15.13;100.00;98299.09;2115215;27;45591;-53
2024/02/11 04:39:59;;;;;;;;;4.00;2.25;;;;;15.15;100.00;98305.16;2117445;27;46351;-52
2024/02/11 04:41:00;;;;;;;;;2.33;0.67;;;;;15.19;100.00;98295.06;2117285;27;46615;-52
2024/02/11 04:42:01;;;;;;;;;3.00;2.00;;;;;15.26;100.00;98298.97;2118411;27;46738;-49
2024/02/11 04:43:02;;;;;;;;;3.33;2.00;;;;;15.35;100.00;98297.38;2116840;27;46919;-48
2024/02/11 04:44:05;;;;;;;;;2.00;2.00;;;;;15.30;100.00;98303.94;2119535;27;45769;-49